Time;durP1;ratioP1;P1;durP2;ratioP2;P2;SDS_P1;SDS_P2;PMS_P1;PMS_P2;Temp;Humidity;BMP_temperature;BMP_pressure;BME280_temperature;BME280_humidity;BME280_pressure;Samples;Min_cycle;Max_cycle;Signal;HPM_P1;HPM_P2
2021/11/13 00:00:39;;;;;;;59.92;36.15;;;0.30;99.90;;;;;;5031321;28;20038;-64
2021/11/13 00:03:06;;;;;;;57.42;34.00;;;0.20;99.90;;;;;;5032400;28;20030;-63
2021/11/13 00:05:34;;;;;;;53.08;33.50;;;0.20;99.90;;;;;;5031440;28;20034;-65
2021/11/13 00:07:59;;;;;;;61.45;34.08;;;0.10;99.90;;;;;;5032182;28;20553;-64
2021/11/13 00:10:26;;;;;;;57.38;34.17;;;0.10;99.90;;;;;;5031986;28;20116;-63
2021/11/13 00:12:54;;;;;;;61.30;34.70;;;0.10;99.90;;;;;;5034442;28;20033;-64
2021/11/13 00:15:21;;;;;;;57.92;33.53;;;0.10;99.90;;;;;;5051225;28;20032;-63
2021/11/13 00:17:48;;;;;;;58.42;33.80;;;0.10;99.90;;;;;;5051062;28;20469;-64
2021/11/13 00:20:14;;;;;;;57.67;32.63;;;0.10;99.90;;;;;;5051919;28;20032;-64
2021/11/13 00:22:40;;;;;;;59.22;34.60;;;0.10;99.90;;;;;;5043369;28;20056;-64
2021/11/13 00:25:06;;;;;;;61.13;34.35;;;0.00;99.90;;;;;;5051485;28;20028;-64
2021/11/13 00:27:32;;;;;;;74.82;39.72;;;0.00;99.90;;;;;;5049486;28;20029;-64
2021/11/13 00:29:58;;;;;;;75.68;40.42;;;0.10;99.90;;;;;;5050948;28;20079;-64
2021/11/13 00:32:23;;;;;;;73.75;38.60;;;0.10;99.90;;;;;;5050966;28;20041;-64
2021/11/13 00:34:49;;;;;;;78.88;42.03;;;0.20;99.90;;;;;;5032115;28;20031;-64
2021/11/13 00:37:15;;;;;;;75.40;39.22;;;0.20;99.90;;;;;;5031678;28;20060;-64
2021/11/13 00:39:40;;;;;;;76.45;40.13;;;0.30;99.90;;;;;;5043552;28;20060;-64
2021/11/13 00:42:06;;;;;;;68.68;36.20;;;0.40;99.90;;;;;;5051148;28;20032;-64
2021/11/13 00:44:34;;;;;;;64.28;36.08;;;0.40;99.90;;;;;;5034377;28;20084;-65
2021/11/13 00:47:00;;;;;;;64.80;35.65;;;0.40;99.90;;;;;;5030933;28;20056;-64
2021/11/13 00:49:26;;;;;;;57.30;35.40;;;0.40;99.90;;;;;;5041963;28;20428;-64
2021/11/13 00:51:52;;;;;;;56.95;33.33;;;0.40;99.90;;;;;;5049866;28;20108;-67
2021/11/13 00:54:18;;;;;;;59.13;35.00;;;0.50;99.90;;;;;;5031645;28;20128;-64
2021/11/13 00:56:44;;;;;;;67.07;36.20;;;0.50;99.90;;;;;;5030199;28;20037;-64
2021/11/13 00:59:09;;;;;;;73.45;38.50;;;0.60;99.90;;;;;;5030977;28;20033;-66
2021/11/13 01:01:35;;;;;;;75.03;40.80;;;0.60;99.90;;;;;;5030342;28;20032;-64
2021/11/13 01:04:01;;;;;;;67.13;38.63;;;0.70;99.90;;;;;;5047636;28;20096;-64
2021/11/13 01:06:27;;;;;;;73.50;39.83;;;0.70;99.90;;;;;;5050894;28;20061;-65
2021/11/13 01:08:53;;;;;;;71.55;39.03;;;0.80;99.90;;;;;;5049021;28;20104;-66
2021/11/13 01:11:19;;;;;;;70.03;38.65;;;0.80;99.90;;;;;;5050753;28;20033;-66
2021/11/13 01:13:45;;;;;;;67.95;38.28;;;0.90;99.90;;;;;;5050181;28;20150;-66
2021/11/13 01:16:10;;;;;;;66.47;36.78;;;0.90;99.90;;;;;;5050900;28;20120;-66
2021/11/13 01:18:38;;;;;;;62.33;36.15;;;0.90;99.90;;;;;;5050082;28;20036;-66
2021/11/13 01:21:04;;;;;;;67.00;38.00;;;0.90;99.90;;;;;;5050632;28;20707;-66
2021/11/13 01:23:34;;;;;;;66.47;36.30;;;0.90;99.90;;;;;;5050608;28;20482;-66
2021/11/13 01:26:01;;;;;;;71.80;40.00;;;0.90;99.90;;;;;;5050814;28;20029;-67
2021/11/13 01:28:26;;;;;;;68.03;37.28;;;1.00;99.90;;;;;;5050024;28;20044;-65
2021/11/13 01:30:52;;;;;;;94.43;39.28;;;1.00;99.90;;;;;;5049896;28;20021;-65
2021/11/13 01:33:18;;;;;;;71.10;38.75;;;1.00;99.90;;;;;;5050090;28;20102;-65
2021/11/13 01:35:43;;;;;;;72.30;40.42;;;1.10;99.90;;;;;;5050053;28;20492;-65
2021/11/13 01:38:09;;;;;;;76.82;39.50;;;1.20;99.90;;;;;;5050627;28;20573;-64
2021/11/13 01:40:35;;;;;;;74.10;40.45;;;1.20;99.90;;;;;;5049882;28;20091;-67
2021/11/13 01:43:01;;;;;;;75.18;40.53;;;1.30;99.90;;;;;;5050561;28;20027;-64
2021/11/13 01:45:27;;;;;;;71.40;42.53;;;1.30;99.90;;;;;;5050177;28;20056;-64
2021/11/13 01:47:53;;;;;;;71.72;39.65;;;1.40;99.90;;;;;;5049851;28;20454;-65
2021/11/13 01:50:25;;;;;;;116.82;38.65;;;1.50;99.90;;;;;;5050477;28;20083;-65
2021/11/13 01:52:51;;;;;;;88.00;39.70;;;1.50;99.90;;;;;;5049758;28;20091;-66
2021/11/13 01:55:19;;;;;;;87.45;37.22;;;1.50;99.90;;;;;;5050352;28;20471;-66
2021/11/13 01:57:46;;;;;;;62.40;35.85;;;1.50;99.90;;;;;;5049697;28;20025;-65
2021/11/13 02:00:29;;;;;;;70.18;38.13;;;1.40;99.90;;;;;;5050580;28;20029;-65
2021/11/13 02:02:55;;;;;;;63.03;34.35;;;1.40;99.90;;;;;;5049462;28;20056;-65
2021/11/13 02:05:21;;;;;;;59.13;34.45;;;1.30;99.90;;;;;;5050777;28;20107;-65
2021/11/13 02:07:46;;;;;;;58.47;34.10;;;1.30;99.90;;;;;;5049409;28;20458;-65
2021/11/13 02:10:14;;;;;;;57.40;33.10;;;1.20;99.90;;;;;;5050138;28;20112;-65
2021/11/13 02:12:40;;;;;;;66.28;35.88;;;1.20;99.90;;;;;;5049378;28;20028;-65
2021/11/13 02:15:07;;;;;;;69.78;36.83;;;1.20;99.90;;;;;;5050169;28;20032;-65
2021/11/13 02:17:33;;;;;;;61.80;35.28;;;1.10;99.90;;;;;;5049822;28;20033;-66
2021/11/13 02:20:32;;;;;;;61.47;35.00;;;1.10;99.90;;;;;;5050080;28;20037;-65
2021/11/13 02:23:01;;;;;;;61.58;34.65;;;1.10;99.90;;;;;;5049726;28;20059;-65
2021/11/13 02:25:29;;;;;;;70.97;38.63;;;1.10;99.90;;;;;;5050810;28;20061;-65
2021/11/13 02:27:55;;;;;;;67.03;36.90;;;1.00;99.90;;;;;;5049848;28;20120;-65
2021/11/13 02:30:21;;;;;;;70.93;36.42;;;1.00;99.90;;;;;;5050062;28;20483;-66
2021/11/13 02:32:49;;;;;;;63.65;35.63;;;1.10;99.90;;;;;;5048500;28;20466;-65
2021/11/13 02:35:16;;;;;;;74.32;38.10;;;1.10;99.90;;;;;;5050445;28;20062;-65
2021/11/13 02:37:44;;;;;;;65.75;35.95;;;1.10;99.90;;;;;;5049095;28;20064;-65
2021/11/13 02:40:11;;;;;;;64.43;34.35;;;1.10;99.90;;;;;;5053605;28;20466;-66
2021/11/13 02:42:38;;;;;;;65.03;35.58;;;1.10;99.90;;;;;;5052540;28;20405;-66
2021/11/13 02:45:06;;;;;;;67.18;37.78;;;1.10;99.90;;;;;;5053566;28;20064;-65
2021/11/13 02:47:33;;;;;;;65.70;35.55;;;1.10;99.90;;;;;;5053033;28;20051;-66
2021/11/13 02:49:59;;;;;;;77.15;38.78;;;1.10;99.90;;;;;;5053152;28;20029;-66
2021/11/13 02:52:25;;;;;;;79.25;38.92;;;1.10;99.90;;;;;;5053265;28;20039;-65
2021/11/13 02:54:52;;;;;;;74.05;38.30;;;1.10;99.90;;;;;;5052583;28;20021;-66
2021/11/13 02:57:18;;;;;;;83.45;37.58;;;1.10;99.90;;;;;;5053312;28;20430;-65
2021/11/13 02:59:49;;;;;;;68.82;38.40;;;1.10;99.90;;;;;;5052581;28;20437;-64
2021/11/13 03:02:15;;;;;;;76.05;38.60;;;1.20;99.90;;;;;;5053056;28;20048;-66
2021/11/13 03:04:41;;;;;;;67.47;36.08;;;1.20;99.90;;;;;;5051996;28;20486;-66
2021/11/13 03:07:08;;;;;;;78.38;39.88;;;1.20;99.90;;;;;;5053604;28;20029;-66
2021/11/13 03:09:35;;;;;;;71.55;37.35;;;1.20;99.90;;;;;;5052453;28;20029;-66
2021/11/13 03:12:01;;;;;;;95.53;43.40;;;1.20;99.90;;;;;;5052658;28;20111;-66
2021/11/13 03:14:27;;;;;;;72.85;36.97;;;1.20;99.90;;;;;;5052392;28;20072;-66
2021/11/13 03:16:52;;;;;;;74.22;36.33;;;1.20;99.90;;;;;;5052580;28;20048;-66
2021/11/13 03:19:18;;;;;;;70.65;36.90;;;1.20;99.90;;;;;;5052924;28;20091;-66
2021/11/13 03:21:44;;;;;;;74.15;35.95;;;1.20;99.90;;;;;;5050920;28;20033;-65
2021/11/13 03:24:11;;;;;;;62.33;32.90;;;1.20;99.90;;;;;;5052402;28;20039;-66
2021/11/13 03:26:38;;;;;;;63.45;34.53;;;1.20;99.90;;;;;;5052106;28;20123;-66
2021/11/13 03:29:16;;;;;;;66.60;34.70;;;1.10;99.90;;;;;;5052753;28;20082;-66
2021/11/13 03:31:43;;;;;;;71.57;35.85;;;1.10;99.90;;;;;;5051847;28;20032;-66
2021/11/13 03:34:09;;;;;;;63.95;35.65;;;1.10;99.90;;;;;;5052159;28;20061;-66
2021/11/13 03:36:35;;;;;;;63.88;33.60;;;1.10;99.90;;;;;;5051502;28;20517;-66
2021/11/13 03:39:02;;;;;;;58.35;33.17;;;1.10;99.90;;;;;;5052680;28;20037;-66
2021/11/13 03:41:30;;;;;;;64.05;32.80;;;1.10;99.90;;;;;;5051329;28;20021;-66
2021/11/13 03:43:55;;;;;;;57.15;31.35;;;1.00;99.90;;;;;;5051264;28;20029;-65
2021/11/13 03:46:21;;;;;;;57.80;32.08;;;1.00;99.90;;;;;;5052455;28;20065;-66
2021/11/13 03:48:48;;;;;;;56.28;32.20;;;1.00;99.90;;;;;;5051169;28;20060;-65
2021/11/13 03:51:14;;;;;;;52.00;29.70;;;1.00;99.90;;;;;;5051395;28;20029;-66
2021/11/13 03:53:40;;;;;;;55.60;30.95;;;1.10;99.90;;;;;;5051183;28;20033;-65
2021/11/13 03:56:06;;;;;;;45.50;27.75;;;1.00;99.90;;;;;;5052484;28;20021;-65
2021/11/13 03:58:38;;;;;;;47.92;28.90;;;1.10;99.90;;;;;;5052068;28;20033;-65
2021/11/13 04:01:04;;;;;;;47.17;28.40;;;1.10;99.90;;;;;;5052354;28;20116;-65
2021/11/13 04:03:29;;;;;;;48.78;28.33;;;1.00;99.90;;;;;;5051767;28;20125;-65
2021/11/13 04:05:56;;;;;;;46.63;28.50;;;1.10;99.90;;;;;;5051064;28;20056;-65
2021/11/13 04:08:21;;;;;;;43.22;26.98;;;1.10;99.90;;;;;;5051718;28;20386;-65
2021/11/13 04:10:47;;;;;;;43.80;27.23;;;1.10;99.90;;;;;;5051303;28;20029;-65
2021/11/13 04:13:13;;;;;;;42.03;27.27;;;1.10;99.90;;;;;;5051590;28;20040;-65
2021/11/13 04:15:39;;;;;;;44.67;27.67;;;1.10;99.90;;;;;;5051322;28;20112;-66
2021/11/13 04:18:05;;;;;;;45.58;27.75;;;1.10;99.90;;;;;;5052038;28;20112;-66
2021/11/13 04:20:31;;;;;;;43.80;27.50;;;1.10;99.90;;;;;;5051242;28;20363;-66
2021/11/13 04:22:57;;;;;;;41.28;27.38;;;1.10;99.90;;;;;;5050765;28;20466;-66
2021/11/13 04:25:23;;;;;;;41.50;26.38;;;1.20;99.90;;;;;;5051866;28;20032;-66
2021/11/13 04:27:50;;;;;;;36.17;23.40;;;1.20;99.90;;;;;;5050909;28;20454;-66
2021/11/13 04:30:17;;;;;;;34.13;22.02;;;1.20;99.90;;;;;;5051563;28;20039;-65
2021/11/13 04:32:46;;;;;;;30.63;20.77;;;1.30;99.90;;;;;;5050417;28;20107;-66
2021/11/13 04:38:03;;;;;;;33.15;21.65;;;1.40;99.90;;;;;;5040787;28;20048;-66
2021/11/13 04:40:34;;;;;;;37.33;23.85;;;1.40;99.90;;;;;;5051488;28;20028;-66
2021/11/13 04:42:59;;;;;;;31.48;20.83;;;1.50;99.90;;;;;;5050985;28;20033;-66
2021/11/13 04:45:25;;;;;;;34.10;22.70;;;1.40;99.90;;;;;;5050176;28;20615;-64
2021/11/13 04:47:51;;;;;;;34.30;22.55;;;1.50;99.90;;;;;;5050143;28;20039;-65
2021/11/13 04:50:21;;;;;;;32.35;22.58;;;1.50;99.90;;;;;;5051043;28;20065;-65
2021/11/13 04:52:47;;;;;;;30.83;21.58;;;1.50;99.90;;;;;;5050138;28;20036;-64
2021/11/13 04:55:14;;;;;;;30.30;20.98;;;1.50;99.90;;;;;;5050997;28;20049;-64
2021/11/13 04:57:40;;;;;;;29.80;20.73;;;1.60;99.90;;;;;;5050319;28;20048;-65
2021/11/13 05:00:11;;;;;;;30.73;21.70;;;1.60;99.90;;;;;;5050462;28;20036;-65
2021/11/13 05:02:36;;;;;;;;;;;1.60;99.90;;;;;;5050522;28;20029;-66
2021/11/13 05:05:02;;;;;;;31.48;20.60;;;1.60;99.90;;;;;;5050804;28;19911;-65
2021/11/13 05:07:28;;;;;;;30.75;21.08;;;1.60;99.90;;;;;;5050949;28;20482;-65
2021/11/13 05:09:54;;;;;;;29.70;20.67;;;1.60;99.90;;;;;;5049756;28;20033;-65
2021/11/13 05:12:21;;;;;;;29.27;20.27;;;1.60;99.90;;;;;;5050244;28;20037;-66
2021/11/13 05:14:47;;;;;;;29.05;19.67;;;1.50;99.90;;;;;;5050133;28;20029;-64
2021/11/13 05:17:13;;;;;;;29.33;20.27;;;1.60;99.90;;;;;;5050581;28;20033;-65
2021/11/13 05:19:40;;;;;;;29.40;20.15;;;1.60;99.90;;;;;;5050033;28;20035;-65
2021/11/13 05:22:06;;;;;;;31.80;21.15;;;1.70;99.90;;;;;;5050561;28;20032;-66
2021/11/13 05:24:38;;;;;;;32.70;22.38;;;1.70;99.90;;;;;;5050024;28;20032;-65
2021/11/13 05:27:04;;;;;;;30.77;20.27;;;1.70;99.90;;;;;;5050296;28;20029;-64
2021/11/13 05:29:30;;;;;;;30.40;19.83;;;1.60;99.90;;;;;;5050654;28;20078;-65
2021/11/13 05:31:56;;;;;;;31.85;22.25;;;1.70;99.90;;;;;;5050161;28;20150;-65
2021/11/13 05:34:22;;;;;;;30.10;20.85;;;1.70;99.90;;;;;;5050088;28;20378;-66
2021/11/13 05:36:48;;;;;;;30.00;20.58;;;1.70;99.90;;;;;;5049686;28;20033;-65
2021/11/13 05:39:14;;;;;;;30.52;20.90;;;1.70;99.90;;;;;;5050292;28;20041;-65
2021/11/13 05:41:40;;;;;;;30.77;20.98;;;1.80;99.90;;;;;;5049078;28;20029;-65
2021/11/13 05:44:06;;;;;;;31.42;20.73;;;1.80;99.90;;;;;;5050108;28;20033;-65
2021/11/13 05:46:36;;;;;;;30.70;19.95;;;1.80;99.90;;;;;;5049884;28;20048;-65
2021/11/13 05:49:02;;;;;;;30.98;20.67;;;1.80;99.90;;;;;;5050120;28;20547;-66
2021/11/13 05:51:28;;;;;;;29.13;19.95;;;1.80;99.90;;;;;;5049857;28;20036;-65
2021/11/13 05:53:54;;;;;;;33.17;22.40;;;1.70;99.90;;;;;;5048762;28;20025;-65
2021/11/13 05:56:20;;;;;;;34.58;23.13;;;1.70;99.90;;;;;;5049479;28;20033;-65
2021/11/13 05:58:45;;;;;;;32.25;21.50;;;1.70;99.90;;;;;;5049101;28;20031;-65
2021/11/13 06:01:11;;;;;;;32.30;22.83;;;1.80;99.90;;;;;;5049594;28;20033;-65
2021/11/13 06:03:37;;;;;;;32.25;21.00;;;1.80;99.90;;;;;;5048133;28;20029;-65
2021/11/13 06:06:02;;;;;;;29.23;20.30;;;2.00;99.90;;;;;;5049875;28;20079;-65
2021/11/13 06:08:28;;;;;;;31.73;21.98;;;2.10;99.90;;;;;;5049857;28;20029;-65
2021/11/13 06:10:54;;;;;;;30.88;20.35;;;2.10;99.90;;;;;;5049087;28;20025;-65
2021/11/13 06:13:19;;;;;;;31.60;20.75;;;2.10;99.90;;;;;;5050730;28;20474;-65
2021/11/13 06:15:45;;;;;;;32.97;21.77;;;2.00;99.90;;;;;;5053067;28;20355;-66
2021/11/13 06:18:11;;;;;;;30.33;21.20;;;2.00;99.90;;;;;;5053347;28;20405;-66
2021/11/13 06:20:37;;;;;;;32.72;22.15;;;2.00;99.90;;;;;;5052748;28;20025;-66
2021/11/13 06:23:03;;;;;;;31.25;22.15;;;2.00;99.90;;;;;;5053332;28;20029;-65
2021/11/13 06:25:29;;;;;;;31.40;22.20;;;2.00;99.90;;;;;;5053777;28;20025;-65
2021/11/13 06:27:55;;;;;;;29.23;20.65;;;2.00;99.90;;;;;;5052398;28;20029;-65
2021/11/13 06:30:21;;;;;;;30.80;21.30;;;2.00;99.90;;;;;;5053345;28;20044;-65
2021/11/13 06:32:51;;;;;;;30.33;21.40;;;2.00;99.90;;;;;;5052411;28;20481;-65
2021/11/13 06:35:17;;;;;;;35.38;21.38;;;2.00;99.90;;;;;;5050902;28;20023;-65
2021/11/13 06:37:43;;;;;;;31.08;21.75;;;2.00;99.90;;;;;;5052549;28;20040;-65
2021/11/13 06:40:10;;;;;;;32.38;21.60;;;2.10;99.90;;;;;;5053356;28;20033;-65
2021/11/13 06:42:37;;;;;;;28.30;19.95;;;2.10;99.90;;;;;;5052602;28;20078;-66
2021/11/13 06:45:06;;;;;;;30.38;20.73;;;2.10;99.90;;;;;;5052810;28;20501;-65
2021/11/13 06:47:34;;;;;;;29.13;20.30;;;2.10;99.90;;;;;;5052691;28;20430;-65
2021/11/13 06:50:00;;;;;;;31.15;20.95;;;2.20;99.90;;;;;;5052899;28;20041;-65
2021/11/13 06:52:26;;;;;;;31.02;20.60;;;2.20;99.90;;;;;;5052906;28;20032;-65
2021/11/13 06:54:52;;;;;;;28.55;20.10;;;2.20;99.90;;;;;;5050294;28;20792;-65
2021/11/13 06:57:18;;;;;;;29.67;20.75;;;2.20;99.90;;;;;;5052853;28;20021;-65
2021/11/13 06:59:43;;;;;;;29.65;20.48;;;2.30;99.90;;;;;;5052146;28;20029;-65
2021/11/13 07:02:09;;;;;;;30.77;21.85;;;2.40;99.90;;;;;;5053243;28;20024;-65
2021/11/13 07:04:37;;;;;;;28.58;20.63;;;2.40;99.90;;;;;;5052132;28;20040;-66
2021/11/13 07:07:03;;;;;;;33.88;20.13;;;2.40;99.90;;;;;;5052605;28;20029;-66
2021/11/13 07:09:28;;;;;;;26.40;17.33;;;2.50;99.90;;;;;;5052772;28;20475;-65
2021/11/13 07:11:54;;;;;;;24.52;16.85;;;2.60;99.90;;;;;;5051555;28;20035;-66
2021/11/13 07:14:20;;;;;;;21.27;15.90;;;2.80;99.90;;;;;;5052410;28;20410;-65
2021/11/13 07:16:46;;;;;;;20.48;14.75;;;3.00;99.90;;;;;;5051615;28;20387;-65
2021/11/13 07:19:12;;;;;;;26.48;17.20;;;3.00;99.90;;;;;;5052105;28;20032;-65
2021/11/13 07:21:39;;;;;;;22.85;14.80;;;3.10;99.90;;;;;;5051500;28;20032;-66
2021/11/13 07:24:07;;;;;;;23.17;12.80;;;3.30;99.90;;;;;;5050983;28;20155;-65
2021/11/13 07:26:39;;;;;;;19.88;12.27;;;3.40;99.90;;;;;;5051482;28;20029;-66
2021/11/13 07:29:07;;;;;;;17.83;12.40;;;3.50;99.90;;;;;;5052471;28;20486;-65
2021/11/13 07:31:34;;;;;;;22.65;13.20;;;3.70;99.90;;;;;;5051394;28;20419;-66
2021/11/13 07:34:00;;;;;;;21.90;14.40;;;3.70;99.90;;;;;;5052093;28;20041;-66
2021/11/13 07:36:26;;;;;;;20.65;15.85;;;3.80;99.90;;;;;;5052179;28;20029;-65
2021/11/13 07:38:53;;;;;;;21.20;14.93;;;3.90;99.90;;;;;;5051013;28;20025;-65
2021/11/13 07:41:19;;;;;;;23.73;15.60;;;4.00;99.90;;;;;;5052198;28;20036;-65
2021/11/13 07:43:46;;;;;;;22.52;15.50;;;3.90;99.90;;;;;;5051292;28;20420;-65
2021/11/13 07:46:11;;;;;;;23.85;16.27;;;3.80;99.90;;;;;;5051660;28;20056;-66
2021/11/13 07:48:37;;;;;;;21.05;15.48;;;3.90;99.90;;;;;;5051276;28;20369;-66
2021/11/13 07:51:04;;;;;;;24.60;16.63;;;3.80;99.90;;;;;;5053004;28;20099;-66
2021/11/13 07:53:30;;;;;;;24.25;15.65;;;3.80;99.90;;;;;;5052734;28;20025;-66
2021/11/13 07:55:56;;;;;;;23.15;15.57;;;3.70;99.90;;;;;;5052611;28;20017;-67
2021/11/13 07:58:22;;;;;;;25.25;15.23;;;3.70;99.90;;;;;;5053187;28;20036;-67
2021/11/13 08:00:50;;;;;;;19.75;15.35;;;3.70;99.90;;;;;;5052132;28;20029;-66
2021/11/13 08:03:17;;;;;;;23.70;15.38;;;3.70;99.90;;;;;;5052389;28;20036;-66
2021/11/13 08:05:43;;;;;;;25.40;16.63;;;3.70;99.90;;;;;;5050715;28;20025;-67
2021/11/13 08:08:09;;;;;;;25.67;17.05;;;3.80;99.90;;;;;;5051154;28;20040;-67
2021/11/13 08:10:41;;;;;;;22.08;16.17;;;3.80;99.90;;;;;;5051692;28;20041;-67
2021/11/13 08:13:16;;;;;;;24.77;16.83;;;3.90;99.90;;;;;;5051498;28;20047;-66
2021/11/13 08:15:43;;;;;;;21.35;15.63;;;4.00;99.90;;;;;;5052250;28;20031;-68
2021/11/13 08:18:10;;;;;;;20.88;15.32;;;4.00;99.90;;;;;;5052603;28;20029;-67
2021/11/13 08:20:39;;;;;;;21.50;15.95;;;4.10;99.90;;;;;;5051606;28;20033;-67
2021/11/13 08:23:08;;;;;;;22.83;16.88;;;4.10;99.90;;;;;;5052300;28;20025;-65
2021/11/13 08:25:43;;;;;;;23.90;17.27;;;4.20;99.90;;;;;;5052387;28;20056;-65
2021/11/13 08:28:09;;;;;;;22.50;16.77;;;4.30;99.90;;;;;;5051835;28;20033;-67
2021/11/13 08:30:36;;;;;;;21.27;16.40;;;4.30;99.90;;;;;;5051879;28;20047;-68
2021/11/13 08:33:03;;;;;;;22.02;15.90;;;4.40;99.90;;;;;;5052090;28;20100;-68
2021/11/13 08:35:29;;;;;;;21.05;15.27;;;4.50;99.90;;;;;;5052016;28;20120;-69
2021/11/13 08:37:56;;;;;;;21.42;16.13;;;4.60;99.90;;;;;;5051296;28;20154;-68
2021/11/13 08:40:22;;;;;;;24.65;15.80;;;4.80;99.90;;;;;;5052161;28;20146;-68
2021/11/13 08:42:48;;;;;;;22.25;16.02;;;4.90;99.90;;;;;;5051781;28;20522;-67
2021/11/13 08:45:14;;;;;;;21.88;16.20;;;4.90;99.90;;;;;;5052083;28;20055;-69
2021/11/13 08:47:42;;;;;;;22.08;15.45;;;4.90;99.90;;;;;;5051214;28;20043;-66
2021/11/13 08:50:12;;;;;;;22.67;15.50;;;5.10;99.90;;;;;;5051699;28;20040;-65
2021/11/13 08:52:39;;;;;;;20.67;14.95;;;5.10;99.90;;;;;;5051499;28;20021;-66
2021/11/13 08:55:06;;;;;;;22.38;15.80;;;5.10;99.90;;;;;;5052164;28;20128;-66
2021/11/13 08:57:32;;;;;;;19.85;15.15;;;5.10;99.90;;;;;;5051675;28;20033;-65
2021/11/13 08:59:58;;;;;;;25.00;16.60;;;5.00;99.90;;;;;;5050826;28;20058;-66
2021/11/13 09:02:25;;;;;;;20.33;15.45;;;4.90;99.90;;;;;;5052029;28;20029;-65
2021/11/13 09:04:53;;;;;;;20.30;15.10;;;4.80;99.90;;;;;;5051158;28;20029;-66
2021/11/13 09:07:20;;;;;;;24.60;17.27;;;4.90;99.90;;;;;;5038139;28;20029;-66
2021/11/13 09:09:47;;;;;;;21.13;16.00;;;4.80;99.90;;;;;;5052493;28;20036;-66
2021/11/13 09:12:22;;;;;;;23.52;16.73;;;4.90;99.90;;;;;;5050349;28;20032;-67
2021/11/13 09:14:53;;;;;;;20.98;15.60;;;4.90;99.90;;;;;;5050842;28;20465;-66
2021/11/13 09:17:20;;;;;;;22.60;16.25;;;4.90;99.90;;;;;;5051370;28;20029;-65
2021/11/13 09:19:46;;;;;;;21.38;15.50;;;5.00;99.90;;;;;;5050519;28;20032;-66
2021/11/13 09:22:12;;;;;;;20.85;15.23;;;5.10;99.90;;;;;;5050790;28;20035;-66
2021/11/13 09:24:40;;;;;;;21.80;15.88;;;5.20;99.90;;;;;;5049439;28;20033;-65
2021/11/13 09:27:06;;;;;;;21.00;16.27;;;5.30;99.90;;;;;;5051077;28;20029;-65
2021/11/13 09:29:32;;;;;;;19.52;14.85;;;5.40;99.90;;;;;;5051216;28;20116;-65
2021/11/13 09:31:58;;;;;;;22.92;16.23;;;5.50;99.90;;;;;;5050686;28;20040;-66
2021/11/13 09:34:23;;;;;;;21.23;16.20;;;5.50;99.90;;;;;;5050771;28;20028;-65
2021/11/13 09:36:49;;;;;;;21.50;15.85;;;5.60;99.90;;;;;;5050204;28;20040;-67
2021/11/13 09:39:18;;;;;;;19.42;15.55;;;5.70;99.90;;;;;;5050856;28;20448;-67
2021/11/13 09:41:45;;;;;;;26.08;16.48;;;5.70;99.90;;;;;;5050416;28;20025;-66
2021/11/13 09:44:11;;;;;;;24.55;16.50;;;5.90;99.90;;;;;;5050858;28;20029;-65
2021/11/13 09:46:37;;;;;;;21.23;14.52;;;6.10;99.90;;;;;;5051462;28;20099;-64
2021/11/13 09:49:04;;;;;;;19.55;14.23;;;6.30;99.90;;;;;;5051874;28;20040;-72
2021/11/13 09:51:30;;;;;;;21.13;15.05;;;6.40;99.90;;;;;;5055592;28;20083;-72
2021/11/13 09:53:57;;;;;;;21.25;13.18;;;6.50;99.90;;;;;;5053929;28;20037;-70
2021/11/13 09:56:23;;;;;;;19.20;14.57;;;6.70;99.90;;;;;;5053745;28;20036;-66
2021/11/13 09:58:50;;;;;;;18.30;14.00;;;6.80;99.90;;;;;;5054221;28;20025;-66
2021/11/13 10:01:16;;;;;;;23.73;14.85;;;;;;;;;;5055435;28;20029;-66
2021/11/13 10:03:47;;;;;;;18.50;13.57;;;7.30;99.90;;;;;;5054204;28;20109;-68
2021/11/13 10:06:14;;;;;;;22.67;13.73;;;7.40;99.90;;;;;;5052336;28;20029;-66
2021/11/13 10:08:45;;;;;;;17.90;13.57;;;7.50;99.90;;;;;;5054632;28;20375;-67
2021/11/13 10:11:16;;;;;;;20.55;14.52;;;7.30;99.90;;;;;;5054766;28;20044;-65
2021/11/13 10:13:45;;;;;;;22.52;14.90;;;7.20;99.90;;;;;;5054514;28;20082;-66
2021/11/13 10:16:17;;;;;;;18.15;13.77;;;7.00;99.90;;;;;;5054965;28;20026;-68
2021/11/13 10:18:49;;;;;;;20.70;14.88;;;6.90;99.90;;;;;;5053698;28;20040;-69
2021/11/13 10:21:19;;;;;;;20.10;14.77;;;6.70;99.90;;;;;;5054712;28;20045;-68
2021/11/13 10:23:52;;;;;;;20.67;14.98;;;6.70;99.90;;;;;;5034537;28;20471;-68
2021/11/13 10:26:22;;;;;;;18.10;14.02;;;6.70;99.90;;;;;;5035751;28;20367;-64
2021/11/13 10:29:02;;;;;;;20.35;15.10;;;6.70;99.90;;;;;;5034743;28;20033;-65
2021/11/13 10:31:33;;;;;;;;;;;6.60;99.90;;;;;;5035235;28;20510;-65
2021/11/13 10:34:03;;;;;;;20.85;14.63;;;6.60;99.90;;;;;;5052655;28;19908;-66
2021/11/13 10:36:44;;;;;;;19.73;14.95;;;6.60;99.90;;;;;;5074865;28;20035;-66
2021/11/13 10:39:16;;;;;;;19.02;15.25;;;6.60;99.90;;;;;;5075160;28;20032;-65
2021/11/13 10:41:47;;;;;;;19.73;14.15;;;6.60;99.90;;;;;;5074041;28;20409;-69
2021/11/13 10:44:15;;;;;;;23.25;15.07;;;6.60;99.90;;;;;;5075165;28;20143;-67
2021/11/13 10:46:44;;;;;;;20.23;14.73;;;6.70;99.90;;;;;;5073790;28;20051;-67
2021/11/13 10:49:11;;;;;;;19.63;14.80;;;6.70;99.90;;;;;;5074824;28;20035;-66
2021/11/13 10:51:38;;;;;;;20.95;14.68;;;6.80;99.90;;;;;;5074709;28;20040;-65
2021/11/13 10:54:10;;;;;;;18.23;14.00;;;6.90;99.90;;;;;;5074483;28;20401;-66
2021/11/13 10:56:45;;;;;;;21.42;13.90;;;7.00;99.90;;;;;;5074443;28;20054;-66
2021/11/13 10:59:11;;;;;;;22.10;14.70;;;7.10;99.90;;;;;;5074202;28;20032;-64
2021/11/13 11:01:46;;;;;;;19.08;14.27;;;7.10;99.90;;;;;;5074513;28;20075;-64
2021/11/13 11:04:20;;;;;;;21.73;14.93;;;7.20;99.90;;;;;;5074659;28;20051;-64
2021/11/13 11:06:50;;;;;;;18.90;14.68;;;7.30;99.90;;;;;;5073032;28;20107;-65
2021/11/13 11:09:30;;;;;;;19.63;15.10;;;7.30;99.90;;;;;;5074000;28;20025;-66
2021/11/13 11:11:59;;;;;;;20.13;15.50;;;7.30;99.90;;;;;;5074747;28;20031;-66
2021/11/13 11:14:28;;;;;;;19.35;15.20;;;7.20;99.90;;;;;;5073909;28;20033;-66
2021/11/13 11:17:09;;;;;;;20.90;16.00;;;7.20;99.90;;;;;;5053421;28;20221;-67
2021/11/13 11:19:37;;;;;;;22.38;16.33;;;7.10;99.90;;;;;;5054310;28;20321;-66
2021/11/13 11:22:08;;;;;;;19.77;15.55;;;7.10;99.90;;;;;;5054528;28;20021;-67
2021/11/13 11:24:51;;;;;;;21.75;16.08;;;7.10;99.90;;;;;;5054296;28;20429;-67
2021/11/13 11:27:21;;;;;;;22.40;15.60;;;7.10;99.90;;;;;;5054293;28;20033;-67
2021/11/13 11:30:00;;;;;;;21.73;16.45;;;7.10;99.90;;;;;;5053354;28;20106;-66
2021/11/13 11:32:48;;;;;;;21.48;16.33;;;7.10;99.90;;;;;;5054037;28;20055;-66
2021/11/13 11:35:28;;;;;;;21.95;15.93;;;7.20;99.90;;;;;;5053996;28;20025;-66
2021/11/13 11:38:06;;;;;;;23.02;16.17;;;7.20;99.90;;;;;;5053420;28;20025;-67
2021/11/13 11:40:44;;;;;;;19.52;14.93;;;7.20;99.90;;;;;;5053904;28;20118;-67
2021/11/13 11:43:12;;;;;;;20.50;14.55;;;7.30;99.90;;;;;;5053603;28;20033;-67
2021/11/13 11:45:39;;;;;;;20.10;15.15;;;7.30;99.90;;;;;;5054127;28;20138;-66
2021/11/13 11:48:09;;;;;;;19.73;14.32;;;7.30;99.90;;;;;;5072941;28;20154;-67
2021/11/13 11:50:35;;;;;;;26.33;17.02;;;7.30;99.90;;;;;;5073376;28;20078;-67
2021/11/13 11:53:10;;;;;;;21.55;16.90;;;7.30;99.90;;;;;;5072765;28;20090;-67
2021/11/13 11:55:37;;;;;;;21.63;16.77;;;7.30;99.90;;;;;;5073715;28;20029;-67
2021/11/13 11:58:12;;;;;;;22.10;16.85;;;7.40;99.90;;;;;;5072974;28;20121;-67
2021/11/13 12:00:39;;;;;;;22.92;16.77;;;7.40;99.90;;;;;;5073307;28;20032;-67
2021/11/13 12:03:05;;;;;;;24.17;15.88;;;7.40;99.90;;;;;;5072752;28;20074;-67
2021/11/13 12:05:36;;;;;;;24.60;16.15;;;7.30;99.90;;;;;;5073406;28;20028;-66
2021/11/13 12:08:19;;;;;;;26.77;16.90;;;7.30;99.90;;;;;;5072537;28;20401;-66
2021/11/13 12:10:46;;;;;;;22.80;16.95;;;7.30;99.90;;;;;;5072036;28;20118;-67
2021/11/13 12:13:23;;;;;;;21.92;16.75;;;7.40;99.90;;;;;;5073151;28;20471;-67
2021/11/13 12:15:53;;;;;;;22.95;17.42;;;7.50;99.90;;;;;;5067201;28;20044;-67
2021/11/13 12:18:23;;;;;;;22.73;17.20;;;7.50;99.90;;;;;;5051858;28;20370;-67
2021/11/13 12:21:10;;;;;;;25.13;17.70;;;7.60;99.90;;;;;;5052633;28;20040;-67
2021/11/13 12:23:39;;;;;;;27.40;18.13;;;7.60;99.90;;;;;;5052975;28;20116;-66
2021/11/13 12:26:22;;;;;;;26.77;17.60;;;7.70;99.90;;;;;;5052327;28;20056;-67
2021/11/13 12:28:47;;;;;;;21.88;17.40;;;7.70;99.90;;;;;;5052406;28;20025;-67
2021/11/13 12:31:25;;;;;;;21.67;17.33;;;7.80;99.90;;;;;;5052893;28;20043;-67
2021/11/13 12:33:55;;;;;;;22.05;16.73;;;7.80;99.90;;;;;;5052113;28;20032;-68
2021/11/13 12:36:27;;;;;;;28.20;16.90;;;7.90;99.90;;;;;;5052768;28;20060;-67
2021/11/13 12:38:56;;;;;;;23.63;16.45;;;7.90;99.90;;;;;;5052191;28;20029;-68
2021/11/13 12:41:41;;;;;;;21.00;16.55;;;7.90;99.90;;;;;;5052717;28;20024;-67
2021/11/13 12:44:25;;;;;;;20.23;16.23;;;8.00;99.90;;;;;;5052219;28;20029;-67